Terminal Aerodrome Forecast
Issued by NWS

Home | Current Version | Previous Version | Text Only | Print | Product List | Glossary On
Versions: 1 2 3 4 5 6 7 8 9 10 11 12 13 14 15 16 17 18 19 20
000
FTUS43 KSGF 201735
TAFBBG
TAF
KBBG 201735Z 2018/2118 24006KT P6SM BKN200
     FM202200 28005KT P6SM VCTS BKN040CB OVC150
      TEMPO 2022/2102 4SM TSRA OVC025CB
     FM211000 VRB03KT P6SM OVC008
     FM211600 VRB04KT P6SM SCT030=

USA.gov is the U.S. government's official web portal to all federal, state and local government web resources and services.